Jacksonville, FL (32206)

11:05 PM EDT on August 23, 2016 (GMT -0400)
Talleyrand | | Change Station

Elev 16 ft 30.34 °N, 81.63 °W | Updated 12 minutes ago

Clear
Clear
83.2 °F
Feels Like 93 °F
N
0.0
Wind Variable Wind from ENE
Gusts 8.0 mph

Today
High -- | Low -- °F
--% Chance of Precip.
Yesterday
High -- | Low -- °F
Precip. -- in
Pressure 30.17 in
Visibility 10.0 miles
Clouds Clear
Heat Index 93 °F
Dew Point 78 °F
Humidity 84%
Rainfall 0.00 in
Snow Depth Not available.
6:58 AM 7:59 PM
Waning Gibbous, 62% visible
METAR KCRG 240253Z AUTO 08007KT 10SM CLR 28/24 A3017 RMK AO2 SLP216 T02830244 50007
Pressure 30.17 in
Visibility 10.0 miles
Clouds Clear
Heat Index 93 °F
Dew Point 78 °F
Humidity 84%
Rainfall 0.00 in
Snow Depth Not available.
6:58 AM 7:59 PM
Waning Gibbous, 62% visible
METAR KCRG 240253Z AUTO 08007KT 10SM CLR 28/24 A3017 RMK AO2 SLP216 T02830244 50007
We continue to monitor Invest 99L for the possibility of development into a tropical depression or storm as it approaches the Lesser Antilles, then heads in the general direction of the Bahamas late in the week.

Invest 99L will potentially be impactful in the near-future as it spreads locally heavy rain into the Leeward Islands and eventually Puerto Rico. A flash flood watch is in effect for the Virgin Islands and Puerto Rico from overnight tonight until noon on Thursday.

10-Day Weather Forecast

Almanac

Astronomy

Aug. 23, 2016 Rise Set
Actual Time
Civil Twilight
Nautical Twilight
Astronomical Twilight
Moon
Length of Visible Light
Length of Day
Tomorrow will be .
, % of the Moon is Illuminated

Today's Extremes

State Highs State Lows

Community

WunderPhotos

Upload Photos

1,934,538 photos uploaded!

WunderBlog® & News

Nearby

Air Quality

  Air Quality AQ Index Pollutant
Not available.

Snow Depth

Station Depth Elevation

Earthquake Activity

City Distance Mag. Time & Date
Minimum magnitude displayed is 2.5.

Coastal Water Temperatures

Place Temperature

Stations

Nearby Weather Stations

Station Location Temp. Windchill Dew Point Humidity Wind Precip. Elev Updated Type
                   

Watches & Warnings

There are currently no watches in effect.